KBBF

Brazos 133

Brazos 133, Texas, USA
METAR KBBF 161435Z AUTO 07024KT 10SM OVC027 16/10 A3014 RMK A01
Observed Flight Rules
Dec-16 @ 14:35 UTC (22 minutes ago) Marginal Visual Flight Rules
Wind Visibility Clouds
70° at 24 knots 10 miles
  • Overcast at 2,700' AGL
Temperatures Readings
Current 16°C / 61°F
Dewpoint 10°C / 50°F
Humidity 68%
Altimeter 30.14" Hg
Pressure 1021 hPa
Elevation 36
METAR KBBF 161435Z AUTO 07024KT 10SM OVC027 16/10 A3014 RMK A01
Observed Flight Rules
Dec-16 @ 14:35 UTC
(22 minutes ago)
MVFR
Wind Visibility
70° at 24 knots 10 miles
Clouds
  • Overcast at 2,700' AGL
Temperature Dewpoint
16°C / 61°F 10°C / 50°F
Humidity Altimeter Pressure
68% 30.14" Hg 1021 hPa